Nogales, AZ

12:08 PM MST on March 02, 2015 (GMT -0700)
Nogales International | Change Station
CLOSE
Current Station
Airport
Location: Nogales,
Elevation: 3944 ft
Nearby Weather Stations

Elev 3944 ft 31.42 °N, 110.85 °W | Updated 14 minutes ago

Overcast
Overcast
58 °F
Feels Like 58 °F
N
25
Wind Variable Wind from South
Gusts 32 mph

Today
High -- | Low -- °F
--% Chance of Precip.
Yesterday
High -- | Low -- °F
Precip. -- in
6:49 AM 6:22 PM
Waxing Gibbous, 92% visible
Pressure 29.88 in
Visibility 10.0 miles
Clouds Few 2600 ft
Mostly Cloudy 4700 ft
Overcast 7000 ft
Dew Point 46 °F
Humidity 65%
Rainfall 0.00 in
Snow Depth Not available.
UV 2 out of 12
Pollen 8.20 out of 12
Air Quality Not available.
Flu Activity Not available.
METAR KOLS 021854Z AUTO 18022G28KT 10SM FEW026 BKN047 OVC070 14/08 A2999 RMK AO2 PK WND 19031/1833 RAB33E50 SLP118 P0000 T01440078

More Conditions Fewer Conditions

Pressure 29.88 in
Visibility 10.0 miles
Clouds Few 2600 ft
Mostly Cloudy 4700 ft
Overcast 7000 ft
Dew Point 46 °F
Humidity 65%
Rainfall 0.00 in
Snow Depth Not available.
UV 2 out of 12
Pollen 8.20 out of 12
Air Quality Not available.
Flu Activity Not available.
METAR KOLS 021854Z AUTO 18022G28KT 10SM FEW026 BKN047 OVC070 14/08 A2999 RMK AO2 PK WND 19031/1833 RAB33E50 SLP118 P0000 T01440078

More Conditions Fewer Conditions

Nowcast | as of 11:07 am MST on March 2, 2015

Scattered areas of light precipitation around western Pima County will slowly make their way eastward during the early afternoon period. Expect isolated light rain in the Tucson Metro area within the next hour or so as scattered cells in Santa Cruz County further develop and spread north. Later this afternoon...light rain will become more widespread...but remain light with about a quarter inch expected for the afternoon. Gusty wind 15 to 25 mph will continue through the day.

×

10-Day Weather Forecast

Almanac

Astronomy

Mar. 02, 2015 Rise Set
Actual Time
Civil Twilight
Nautical Twilight
Astronomical Twilight
Moon
Length of Visible Light
Length of Day
Tomorrow will be .
, % of the Moon is Illuminated

Today's Extremes

State Highs State Lows

Community

WunderPhotos

Upload Photos

1,801,913 photos uploaded!

WunderBlogs® & News

Nearby

Air Quality

  Air Quality AQ Index Pollutant
Not available.

Snow Depth

Station Depth Elevation

Earthquake Activity

City Distance Mag. Time & Date
Minimum magnitude displayed is 2.5.

Coastal Water Temperatures

Place Temperature

Nearby Weather Stations